Time;durP1;ratioP1;P1;durP2;ratioP2;P2;SDS_P1;SDS_P2;PMS_P1;PMS_P2;Temp;Humidity;BMP_temperature;BMP_pressure;BME280_temperature;BME280_humidity;BME280_pressure;Samples;Min_cycle;Max_cycle;Signal;HPM_P1;HPM_P2
2022/08/30 06:43:46;;;;;;;19.50;7.05;;;;;;;18.31;69.10;96797.84;2084160;28;20572;-66
2022/08/30 06:44:49;;;;;;;18.58;6.80;;;;;;;18.51;68.74;96800.81;2084280;28;20647;-67
2022/08/30 06:45:51;;;;;;;23.30;7.07;;;;;;;18.67;68.33;96809.28;2085032;28;20254;-67
2022/08/30 06:46:53;;;;;;;21.38;6.60;;;;;;;18.94;67.69;96808.19;2078823;28;20201;-67
2022/08/30 06:47:54;;;;;;;23.45;6.85;;;;;;;18.90;67.28;96810.22;2074305;28;20200;-67
2022/08/30 06:49:00;;;;;;;18.27;7.68;;;;;;;18.96;67.54;96805.41;2071022;28;20197;-67
2022/08/30 06:50:02;;;;;;;22.25;6.97;;;;;;;19.14;67.52;96808.47;2072800;28;20205;-67
2022/08/30 06:51:04;;;;;;;25.05;7.45;;;;;;;19.53;66.00;96806.34;2073876;28;20201;-67
2022/08/30 06:52:05;;;;;;;22.50;6.57;;;;;;;19.68;65.44;96802.50;2073677;28;20221;-67
2022/08/30 06:53:08;;;;;;;15.57;6.50;;;;;;;19.90;64.64;96806.09;2075448;28;20288;-67
2022/08/30 06:54:11;;;;;;;33.88;6.93;;;;;;;20.21;64.07;96806.28;2075792;28;20324;-67
2022/08/30 06:55:14;;;;;;;14.95;5.53;;;;;;;20.69;62.85;96810.31;2071757;28;20202;-66
2022/08/30 06:56:17;;;;;;;15.25;6.05;;;;;;;20.68;62.49;96813.94;2071977;28;20205;-66
2022/08/30 06:57:19;;;;;;;30.42;7.88;;;;;;;20.65;62.47;96807.06;2071494;28;20217;-69
2022/08/30 07:19:05;;;;;;;16.13;6.13;;;;;;;23.20;55.59;96818.59;2067421;28;1224382;-65
2022/08/30 07:20:07;;;;;;;13.93;5.63;;;;;;;23.33;54.63;96804.13;2112139;28;20198;-64
2022/08/30 07:21:13;;;;;;;15.10;5.78;;;;;;;23.72;54.23;96818.13;2111246;28;20221;-64
2022/08/30 07:22:15;;;;;;;12.90;5.95;;;;;;;23.78;54.05;96817.56;2115937;28;20692;-64
2022/08/30 07:23:17;;;;;;;12.98;5.10;;;;;;;23.89;54.31;96819.16;2120565;28;20201;-64
2022/08/30 07:31:07;;;;;;;11.00;5.55;;;;;;;23.97;53.36;96821.13;2111622;28;20642;-65
2022/08/30 07:32:14;;;;;;;12.68;5.57;;;;;;;24.16;53.27;96827.34;2115532;28;20720;-65
2022/08/30 07:33:19;;;;;;;15.02;5.90;;;;;;;24.38;53.06;96828.75;2120179;28;20205;-65
2022/08/30 07:34:20;;;;;;;12.27;6.38;;;;;;;24.36;52.96;96833.41;2111347;28;20284;-65
2022/08/30 07:35:26;;;;;;;7.28;5.40;;;;;;;24.39;53.04;96825.09;2111790;28;20243;-65
2022/08/30 07:56:12;;;;;;;10.35;5.35;;;;;;;25.72;50.24;96827.84;2090220;28;20564;-64
2022/08/30 07:57:13;;;;;;;13.30;5.50;;;;;;;26.08;49.77;96831.22;2087316;27;20228;-64
2022/08/30 07:58:16;;;;;;;12.75;6.28;;;;;;;25.91;49.73;96834.78;2081742;28;20200;-64
2022/08/30 07:59:19;;;;;;;9.48;5.50;;;;;;;26.26;49.10;96829.41;2082313;28;20212;-64
2022/08/30 08:00:20;;;;;;;18.25;5.68;;;;;;;26.34;48.53;96827.59;2083741;28;20197;-64
2022/08/30 08:01:22;;;;;;;9.63;5.68;;;;;;;26.34;48.18;96824.09;2083472;28;20204;-64
2022/08/30 08:02:24;;;;;;;16.55;6.30;;;;;;;25.89;49.34;96818.06;2077046;28;20882;-64
2022/08/30 08:03:25;;;;;;;16.83;5.13;;;;;;;25.91;48.16;96824.09;2075714;28;20351;-64
2022/08/30 08:04:27;;;;;;;27.70;6.60;;;;;;;26.54;46.85;96808.59;2076371;28;20725;-64
2022/08/30 08:05:28;;;;;;;11.15;4.80;;;;;;;26.68;46.97;96823.16;2077115;28;20202;-64
2022/08/30 08:24:45;;;;;;;17.88;5.82;;;;;;;26.65;46.52;96824.34;2074318;28;20181;-66
2022/08/30 08:25:47;;;;;;;9.60;4.90;;;;;;;27.23;45.64;96824.34;2075083;28;20198;-66
2022/08/30 08:26:48;;;;;;;14.02;4.70;;;;;;;27.52;45.05;96828.38;2073722;28;20201;-66
2022/08/30 08:27:50;;;;;;;20.20;4.60;;;;;;;27.45;45.18;96830.91;2074593;28;20198;-66
2022/08/30 08:28:52;;;;;;;13.70;4.68;;;;;;;27.70;44.51;96830.84;2074761;28;20205;-66
2022/08/30 08:29:53;;;;;;;10.27;5.53;;;;;;;27.97;44.03;96826.03;2073215;28;20200;-66
2022/08/30 08:36:03;;;;;;;11.13;4.63;;;;;;;26.47;46.71;96827.13;2073912;28;20174;-66
2022/08/30 08:37:10;;;;;;;11.20;4.90;;;;;;;25.82;47.69;96817.88;2080808;28;20235;-66
2022/08/30 08:38:11;;;;;;;9.15;4.53;;;;;;;25.32;48.46;96821.22;2070383;28;20190;-66
2022/08/30 08:39:13;;;;;;;7.43;5.20;;;;;;;25.53;48.36;96815.56;2075002;28;20208;-66
2022/08/30 08:40:18;;;;;;;8.70;4.60;;;;;;;25.76;47.04;96818.50;2073411;28;20209;-66
2022/08/30 08:41:48;;;;;;;13.00;4.88;;;;;;;25.72;46.71;96826.00;2073024;28;20676;-66
2022/08/30 08:43:13;;;;;;;10.48;4.18;;;;;;;26.02;46.51;96821.13;2074364;28;20221;-66
2022/08/30 08:44:50;;;;;;;7.25;4.18;;;;;;;25.70;47.11;96803.09;2074600;28;20203;-66
2022/08/30 08:45:58;;;;;;;8.38;4.10;;;;;;;26.29;46.19;96826.44;2073716;28;20240;-66
2022/08/30 08:47:15;;;;;;;10.20;4.78;;;;;;;26.43;46.04;96816.94;2071979;28;20210;-64
2022/08/30 08:48:35;;;;;;;6.68;4.20;;;;;;;26.20;46.75;96818.38;2074457;28;20194;-64
2022/08/30 09:06:44;;;;;;;9.55;4.80;;;;;;;27.46;44.32;96818.31;2086111;28;20669;-63
2022/08/30 09:07:51;;;;;;;16.73;4.57;;;;;;;27.49;44.36;96817.97;2069720;28;20260;-63
2022/08/30 09:08:54;;;;;;;12.13;6.63;;;;;;;27.83;43.46;96816.88;2070880;28;20198;-63
2022/08/30 09:09:59;;;;;;;13.80;6.15;;;;;;;27.17;44.72;96806.28;2070770;28;20210;-65
2022/08/30 09:11:05;;;;;;;14.50;5.50;;;;;;;26.45;46.54;96812.22;2068924;28;20201;-65
2022/08/30 09:18:53;;;;;;;10.60;4.25;;;;;;;28.80;42.04;96805.00;2062505;28;20214;-65
2022/08/30 09:19:55;;;;;;;8.15;4.68;;;;;;;26.92;44.42;96806.31;2062479;28;20724;-65
2022/08/30 09:21:05;;;;;;;17.08;6.10;;;;;;;26.77;45.02;96805.31;2062862;28;20657;-65
2022/08/30 09:22:26;;;;;;;6.05;4.65;;;;;;;27.62;44.23;96812.91;2068789;28;20279;-65
2022/08/30 09:23:31;;;;;;;9.40;4.90;;;;;;;28.25;42.68;96820.25;2067030;28;20203;-65
2022/08/30 09:31:23;;;;;;;12.60;4.30;;;;;;;28.05;44.05;96798.38;2062273;28;20202;-67
2022/08/30 09:32:28;;;;;;;17.50;4.70;;;;;;;28.72;42.96;96799.66;2060735;28;20222;-66
2022/08/30 09:33:30;;;;;;;19.27;5.10;;;;;;;27.97;44.14;96769.69;2061454;28;20645;-66
2022/08/30 09:34:32;;;;;;;11.55;5.40;;;;;;;27.69;44.44;96796.97;2062107;28;20218;-65
2022/08/30 09:35:41;;;;;;;11.07;6.15;;;;;;;26.75;47.65;96791.22;2062555;28;20256;-67
2022/08/30 09:36:43;;;;;;;13.93;5.88;;;;;;;26.26;47.04;96792.81;2061763;28;20206;-64
2022/08/30 09:38:03;;;;;;;13.90;5.75;;;;;;;26.28;47.94;96795.31;2061847;28;20293;-64
2022/08/30 09:39:15;;;;;;;9.13;5.03;;;;;;;27.62;45.81;96782.59;2061670;28;20696;-64
2022/08/30 09:40:27;;;;;;;6.97;5.45;;;;;;;28.48;44.21;96791.59;2060785;28;20202;-63
2022/08/30 09:41:37;;;;;;;10.70;4.38;;;;;;;29.07;44.62;96781.25;2061606;28;20260;-63
2022/08/30 09:42:39;;;;;;;16.10;5.15;;;;;;;29.34;42.81;96773.63;2062147;28;20345;-63
2022/08/30 09:43:40;;;;;;;13.40;4.47;;;;;;;29.58;43.08;96788.66;2062373;28;20428;-62
2022/08/30 09:44:42;;;;;;;8.32;3.95;;;;;;;29.82;42.41;96790.22;2062404;28;20564;-63
2022/08/30 09:45:48;;;;;;;14.95;4.65;;;;;;;30.04;41.94;96787.63;2062413;28;20205;-63
2022/08/30 09:46:58;;;;;;;25.65;5.70;;;;;;;28.80;42.20;96786.19;2060138;28;20202;-66
2022/08/30 09:47:59;;;;;;;13.15;4.70;;;;;;;28.48;41.89;96791.59;2061730;28;20195;-66
2022/08/30 10:00:27;;;;;;;13.82;4.38;;;;;;;29.89;40.12;96790.34;2070035;28;20758;-62
2022/08/30 10:01:34;;;;;;;9.05;4.20;;;;;;;29.72;40.34;96785.13;2069471;28;20603;-63
2022/08/30 10:02:50;;;;;;;4.70;3.70;;;;;;;30.59;38.37;96777.31;2069541;28;20225;-62
2022/08/30 10:04:00;;;;;;;5.93;4.20;;;;;;;30.85;37.19;96776.69;2068596;28;20205;-62
2022/08/30 10:05:08;;;;;;;14.07;4.17;;;;;;;30.76;37.95;96780.56;2069959;28;20205;-63
2022/08/30 10:06:27;;;;;;;8.33;4.73;;;;;;;30.60;38.83;96784.31;2068985;28;20930;-62
2022/08/30 10:07:38;;;;;;;7.33;4.30;;;;;;;31.14;37.92;96787.53;2069446;28;20517;-63
2022/08/30 10:08:51;;;;;;;8.77;4.43;;;;;;;31.36;37.14;96780.22;2069551;28;20493;-66
2022/08/30 10:10:15;;;;;;;6.33;4.00;;;;;;;31.39;37.05;96779.84;2070716;28;20438;-65
2022/08/30 10:11:42;;;;;;;24.60;5.10;;;;;;;31.63;36.19;96789.38;2070027;28;20423;-63
2022/08/30 10:13:01;;;;;;;12.07;5.03;;;;;;;31.17;37.16;96784.44;2069922;28;20474;-63
2022/08/30 10:14:34;;;;;;;11.10;4.50;;;;;;;31.13;36.83;96778.59;2070288;28;20423;-63
2022/08/30 10:16:11;;;;;;;7.87;3.97;;;;;;;30.55;38.03;96779.53;2070314;28;20435;-62
2022/08/30 10:17:43;;;;;;;5.77;3.70;;;;;;;30.84;37.66;96780.41;2059056;28;20464;-63
2022/08/30 10:18:53;;;;;;;7.83;4.33;;;;;;;28.67;40.34;96768.81;2063955;28;20436;-62
2022/08/30 10:20:04;;;;;;;7.37;4.70;;;;;;;30.15;38.88;96771.00;2064184;28;20780;-62
2022/08/30 10:21:43;;;;;;;9.20;5.10;;;;;;;29.76;39.30;96777.50;2064396;28;20470;-65
2022/08/30 10:23:08;;;;;;;15.30;6.17;;;;;;;28.56;40.13;96771.06;2061418;28;20459;-65
2022/08/30 10:24:18;;;;;;;16.37;5.13;;;;;;;29.76;39.88;96767.59;2064719;28;20436;-65
2022/08/30 10:25:26;;;;;;;10.43;5.13;;;;;;;30.05;39.24;96771.28;2062916;28;20519;-65
2022/08/30 10:26:36;;;;;;;6.27;4.00;;;;;;;29.92;39.59;96773.81;2064807;28;20460;-65
2022/08/30 10:27:53;;;;;;;12.07;4.80;;;;;;;30.77;37.82;96756.09;2063467;28;21005;-65
2022/08/30 10:29:01;;;;;;;10.63;4.70;;;;;;;31.47;36.41;96774.28;2064306;28;20446;-65
2022/08/30 10:37:22;;;;;;;6.67;4.33;;;;;;;32.12;34.71;96755.09;2064372;28;20389;-65
2022/08/30 10:38:29;;;;;;;5.03;4.10;;;;;;;29.53;38.45;96756.94;2064111;28;20497;-65
2022/08/30 10:39:49;;;;;;;7.10;3.30;;;;;;;30.20;38.40;96756.97;2064819;28;20448;-65
2022/08/30 10:41:12;;;;;;;9.73;4.20;;;;;;;31.34;36.41;96758.00;2064712;28;20435;-65
2022/08/30 10:42:20;;;;;;;7.13;4.17;;;;;;;31.53;35.46;96751.91;2063471;28;20459;-65
2022/08/30 10:43:30;;;;;;;8.80;4.40;;;;;;;31.72;35.05;96758.47;2063487;28;20435;-65
2022/08/30 10:44:40;;;;;;;8.87;3.53;;;;;;;31.68;35.22;96746.41;2064757;28;20427;-65
2022/08/30 10:45:47;;;;;;;4.77;3.60;;;;;;;32.73;33.46;96756.09;2064398;28;20975;-65
2022/08/30 10:47:03;;;;;;;6.93;4.50;;;;;;;31.85;34.81;96756.88;2063651;28;20467;-65
2022/08/30 10:48:16;;;;;;;8.30;4.10;;;;;;;30.18;37.23;96742.84;2063780;28;21185;-65
2022/08/30 10:49:25;;;;;;;6.50;3.90;;;;;;;31.87;35.09;96747.53;2064322;28;20546;-65
2022/08/30 10:50:36;;;;;;;8.73;4.10;;;;;;;33.08;33.55;96745.09;2062638;28;20528;-65
2022/08/30 10:51:54;;;;;;;6.47;3.83;;;;;;;34.01;32.22;96748.66;2064046;28;20559;-65
2022/08/30 10:53:15;;;;;;;6.20;3.60;;;;;;;34.44;31.55;96747.22;2064494;28;20979;-65
2022/08/30 10:54:30;;;;;;;4.50;3.20;;;;;;;34.77;31.41;96755.09;2063157;28;20450;-66
2022/08/30 10:55:44;;;;;;;4.57;4.10;;;;;;;34.27;31.30;96753.13;2064126;28;20439;-65
2022/08/30 10:56:51;;;;;;;6.13;3.40;;;;;;;33.82;30.72;96740.41;2064177;28;20497;-65
2022/08/30 10:57:58;;;;;;;6.23;3.73;;;;;;;32.05;33.60;96751.56;2063724;28;20435;-65
2022/08/30 10:59:04;;;;;;;6.30;3.83;;;;;;;32.06;33.77;96742.41;2064558;28;20427;-65
2022/08/30 11:00:09;;;;;;;4.40;3.00;;;;;;;33.27;32.81;96748.81;2065062;28;21005;-65
2022/08/30 11:01:26;;;;;;;10.13;3.50;;;;;;;32.18;34.13;96745.38;2064554;28;20436;-65
2022/08/30 11:02:47;;;;;;;17.93;4.13;;;;;;;33.63;32.29;96738.56;2063808;28;20456;-65
2022/08/30 11:04:15;;;;;;;6.57;3.90;;;;;;;32.10;34.04;96749.09;2064166;28;20428;-65
2022/08/30 11:05:41;;;;;;;5.80;4.30;;;;;;;30.12;36.61;96736.38;2063911;28;20501;-64
2022/08/30 11:12:03;;;;;;;9.60;4.20;;;;;;;29.88;37.15;96745.59;2064083;28;20396;-64
2022/08/30 11:13:18;;;;;;;9.97;4.50;;;;;;;30.13;37.07;96743.41;2064143;28;20928;-65
2022/08/30 11:14:20;;;;;;;13.03;4.50;;;;;;;30.10;36.96;96733.84;2064295;28;20467;-64
2022/08/30 11:15:30;;;;;;;14.43;4.53;;;;;;;30.23;36.67;96733.19;2063695;28;20436;-64
2022/08/30 11:16:41;;;;;;;6.83;4.60;;;;;;;30.49;36.13;96733.66;2063888;28;20439;-64
2022/08/30 11:17:57;;;;;;;5.50;3.63;;;;;;;30.55;36.87;96731.06;2062921;28;21108;-64
2022/08/30 11:24:02;;;;;;;5.80;3.80;;;;;;;31.70;34.80;96738.13;2063799;28;20436;-65
2022/08/30 11:25:15;;;;;;;6.47;3.63;;;;;;;31.28;35.56;96738.06;2064380;28;20427;-65
2022/08/30 11:26:49;;;;;;;4.27;3.87;;;;;;;31.58;34.82;96733.25;2064232;28;20494;-64
2022/08/30 11:27:57;;;;;;;5.73;3.50;;;;;;;31.36;35.27;96737.06;2064215;28;20439;-64
2022/08/30 11:29:01;;;;;;;10.60;4.80;;;;;;;29.27;37.64;96734.00;2063596;28;20432;-65
2022/08/30 11:30:24;;;;;;;6.67;3.97;;;;;;;28.96;39.20;96737.69;2064022;28;20428;-64
2022/08/30 11:31:34;;;;;;;7.33;3.70;;;;;;;29.73;37.70;96732.97;2063004;28;20435;-64
2022/08/30 11:33:00;;;;;;;8.40;4.70;;;;;;;29.09;38.43;96738.88;2070002;28;20467;-64
2022/08/30 11:34:04;;;;;;;9.50;4.70;;;;;;;29.12;38.62;96742.03;2067539;28;20460;-64
2022/08/30 11:35:06;;;;;;;8.23;4.67;;;;;;;29.76;38.29;96731.78;2064340;28;20515;-66
2022/08/30 11:36:34;;;;;;;13.53;4.33;;;;;;;29.39;37.97;96736.25;2064524;28;20636;-65
2022/08/30 11:37:55;;;;;;;8.73;4.47;;;;;;;30.21;36.99;96734.41;2063491;28;20943;-64
2022/08/30 11:39:09;;;;;;;11.97;4.60;;;;;;;30.23;37.39;96733.19;2064289;28;20935;-64
2022/08/30 11:40:23;;;;;;;5.47;3.87;;;;;;;30.16;36.99;96739.50;2062891;28;20477;-64
2022/08/30 11:41:38;;;;;;;5.80;3.83;;;;;;;29.47;38.49;96739.69;2064435;28;20432;-65
2022/08/30 11:42:49;;;;;;;5.90;3.97;;;;;;;29.87;37.13;96736.66;2063549;28;20452;-63
2022/08/30 11:43:54;;;;;;;15.33;4.00;;;;;;;29.39;38.39;96744.31;2063907;28;20459;-64
2022/08/30 11:45:21;;;;;;;11.47;3.77;;;;;;;29.87;37.42;96746.63;2064275;28;20432;-65
2022/08/30 11:46:26;;;;;;;5.50;3.70;;;;;;;30.06;36.96;96740.66;2064004;28;20433;-64
2022/08/30 11:47:54;;;;;;;8.07;3.60;;;;;;;30.48;37.17;96740.91;2063692;28;21053;-64
2022/08/30 11:49:18;;;;;;;8.83;4.30;;;;;;;30.83;36.75;96738.34;2064073;28;20439;-64
2022/08/30 11:50:45;;;;;;;6.57;3.93;;;;;;;30.75;36.58;96741.16;2058402;28;20440;-64
2022/08/30 11:52:07;;;;;;;11.03;4.73;;;;;;;30.81;36.45;96740.38;2063605;28;20986;-64
2022/08/30 11:53:41;;;;;;;14.83;3.70;;;;;;;30.83;35.89;96737.50;2064016;28;20527;-64
2022/08/30 11:55:07;;;;;;;8.77;3.73;;;;;;;29.80;37.32;96744.69;2064065;28;20559;-65
2022/08/30 11:56:20;;;;;;;9.10;4.60;;;;;;;30.40;35.93;96743.72;2064495;28;20911;-64
2022/08/30 11:58:03;;;;;;;5.90;4.23;;;;;;;29.54;37.25;96731.72;2063089;28;20527;-64
2022/08/30 11:59:36;;;;;;;9.47;3.97;;;;;;;29.76;37.08;96737.16;2052646;28;20539;-65
2022/08/30 12:00:43;;;;;;;6.03;3.87;;;;;;;30.17;36.46;96727.72;2063945;28;20434;-64
2022/08/30 12:01:52;;;;;;;6.67;3.77;;;;;;;30.55;36.24;96731.06;2063321;28;20478;-65
2022/08/30 12:03:00;;;;;;;4.67;3.87;;;;;;;30.95;35.97;96722.47;2064056;28;20439;-64
2022/08/30 12:04:24;;;;;;;7.40;3.80;;;;;;;31.19;35.47;96729.28;2063693;28;20443;-64
2022/08/30 12:05:36;;;;;;;5.77;3.60;;;;;;;30.54;35.58;96729.38;2063878;28;20471;-64
2022/08/30 12:06:38;;;;;;;7.43;3.97;;;;;;;30.60;35.91;96727.75;2063893;28;20428;-64
2022/08/30 12:08:01;;;;;;;10.10;3.87;;;;;;;30.49;35.90;96725.56;2062865;28;20539;-64
2022/08/30 12:09:03;;;;;;;9.90;3.80;;;;;;;30.09;36.59;96723.28;2063210;28;20435;-65
2022/08/30 12:10:23;;;;;;;4.63;3.80;;;;;;;30.58;36.75;96721.75;2063389;28;20424;-65
2022/08/30 12:11:30;;;;;;;6.87;3.70;;;;;;;30.67;36.95;96731.34;2063158;28;20997;-64
2022/08/30 12:12:35;;;;;;;6.10;3.90;;;;;;;30.78;37.15;96727.31;2062916;28;20471;-64
2022/08/30 12:13:43;;;;;;;8.47;5.00;;;;;;;30.65;36.80;96725.31;2063057;28;20436;-64
2022/08/30 12:14:51;;;;;;;7.53;3.93;;;;;;;30.78;37.30;96727.31;2063818;28;20431;-64
2022/08/30 12:15:57;;;;;;;7.30;4.57;;;;;;;30.32;37.47;96720.41;2063914;28;20439;-64
2022/08/30 12:18:32;;;;;;;4.33;3.70;;;;;;;30.49;37.04;96725.56;2062783;28;20447;-65
2022/08/30 12:19:35;;;;;;;5.93;3.80;;;;;;;30.18;37.08;96722.13;2071079;28;20466;-64
2022/08/30 12:20:46;;;;;;;9.60;4.10;;;;;;;30.30;37.06;96722.47;2069824;28;20439;-64
2022/08/30 12:21:56;;;;;;;6.33;4.30;;;;;;;30.23;36.90;96729.66;2062962;28;20424;-64
2022/08/30 12:23:27;;;;;;;10.33;4.50;;;;;;;30.72;36.90;96726.22;2063929;28;21074;-64
2022/08/30 12:24:35;;;;;;;5.93;3.97;;;;;;;31.17;36.23;96731.34;2062299;28;20435;-65
2022/08/30 12:25:37;;;;;;;5.53;3.90;;;;;;;31.55;36.10;96728.28;2063922;28;20467;-64
2022/08/30 12:26:44;;;;;;;5.20;3.97;;;;;;;31.73;35.92;96725.06;2071244;28;21155;-65
2022/08/30 12:27:45;;;;;;;10.00;3.80;;;;;;;32.04;35.67;96715.63;2069745;28;20471;-64
2022/08/30 12:28:50;;;;;;;5.87;3.90;;;;;;;32.11;35.01;96717.50;2069389;28;20431;-64
2022/08/30 12:29:54;;;;;;;7.30;4.10;;;;;;;32.31;34.88;96723.00;2067139;28;20522;-64
2022/08/30 12:31:25;;;;;;;9.37;3.87;;;;;;;32.94;33.95;96722.66;2063345;28;20475;-65
2022/08/30 12:32:29;;;;;;;5.37;4.40;;;;;;;31.37;35.45;96718.00;2061779;28;20545;-64
2022/08/30 12:33:39;;;;;;;15.40;3.73;;;;;;;32.28;34.91;96721.53;2062071;28;20908;-62
2022/08/30 12:34:44;;;;;;;8.60;3.57;;;;;;;33.17;33.94;96715.97;2063921;28;20967;-62
2022/08/30 12:35:46;;;;;;;4.60;3.40;;;;;;;33.54;32.91;96714.44;2063868;28;20436;-62
2022/08/30 12:36:52;;;;;;;9.53;3.10;;;;;;;32.89;33.87;96719.75;2063067;28;20915;-62
2022/08/30 12:37:58;;;;;;;4.83;3.83;;;;;;;33.07;32.94;96716.38;2062049;28;20776;-62
2022/08/30 12:39:19;;;;;;;11.17;3.83;;;;;;;32.83;33.08;96671.91;2063245;28;20434;-62
2022/08/30 12:40:22;;;;;;;6.40;3.70;;;;;;;33.36;32.62;96709.72;2062942;28;20431;-64
2022/08/30 12:41:24;;;;;;;6.53;4.20;;;;;;;33.54;32.31;96698.19;2062289;28;20499;-62
2022/08/30 12:42:34;;;;;;;5.33;3.70;;;;;;;32.61;33.10;96712.63;2063277;28;20467;-62
2022/08/30 12:43:46;;;;;;;7.20;3.17;;;;;;;32.80;33.03;96704.75;2063435;28;20436;-62
2022/08/30 12:44:52;;;;;;;14.73;4.07;;;;;;;32.85;33.36;96697.69;2062907;28;20944;-61
2022/08/30 12:45:58;;;;;;;22.80;19.47;;;;;;;32.76;33.28;96715.16;2061785;28;20467;-61
2022/08/30 12:47:11;;;;;;;41.37;34.63;;;;;;;32.69;33.36;96706.19;2062598;28;20513;-62
2022/08/30 12:48:17;;;;;;;70.23;51.27;;;;;;;32.56;33.66;96709.72;2062475;28;20424;-61
2022/08/30 12:49:24;;;;;;;24.07;18.60;;;;;;;32.51;34.02;96704.94;2063141;28;20431;-62
2022/08/30 12:50:34;;;;;;;7.20;5.53;;;;;;;32.45;33.84;96710.34;2063171;28;20435;-61
2022/08/30 12:51:40;;;;;;;4.07;3.17;;;;;;;32.01;34.46;96702.53;2063717;28;20447;-63
2022/08/30 12:52:46;;;;;;;6.93;3.50;;;;;;;31.68;34.71;96702.41;2062575;28;20499;-63
2022/08/30 12:53:49;;;;;;;13.10;3.70;;;;;;;31.41;35.39;96705.78;2062090;28;20424;-63
2022/08/30 12:54:54;;;;;;;3.90;3.50;;;;;;;31.65;35.03;96692.03;2063558;28;20497;-63
2022/08/30 12:56:02;;;;;;;5.60;3.50;;;;;;;31.72;34.91;96704.50;2063677;28;20432;-63
2022/08/30 12:57:06;;;;;;;5.20;2.90;;;;;;;32.10;34.49;96694.22;2062671;28;20997;-63
2022/08/30 12:58:36;;;;;;;5.20;3.50;;;;;;;32.78;33.44;96696.03;2063032;28;20439;-63
2022/08/30 13:05:05;;;;;;;4.77;3.50;;;;;;;33.30;32.71;96688.09;2062814;28;20408;-63
2022/08/30 13:06:10;;;;;;;5.53;3.33;;;;;;;33.52;32.10;96680.50;2062476;28;20470;-63
2022/08/30 13:07:12;;;;;;;7.50;4.13;;;;;;;31.72;34.22;96674.81;2063114;28;20455;-62
2022/08/30 13:08:21;;;;;;;6.03;3.67;;;;;;;32.09;33.82;96685.31;2063192;28;20432;-63
2022/08/30 13:09:32;;;;;;;6.13;3.70;;;;;;;32.54;33.16;96682.91;2063817;28;20428;-64
2022/08/30 13:10:34;;;;;;;6.87;3.60;;;;;;;32.22;32.83;96684.53;2063055;28;20439;-63
2022/08/30 13:11:36;;;;;;;10.13;4.10;;;;;;;32.13;33.44;96680.34;2063636;28;20428;-63
2022/08/30 13:12:39;;;;;;;9.40;3.73;;;;;;;31.82;33.92;96673.59;2062959;28;20467;-63
2022/08/30 13:13:50;;;;;;;7.60;3.50;;;;;;;31.58;34.03;96670.38;2062979;28;20435;-62
2022/08/30 13:15:09;;;;;;;5.50;4.00;;;;;;;31.80;34.03;96671.09;2063663;28;20915;-63
2022/08/30 13:16:17;;;;;;;8.23;4.00;;;;;;;32.43;33.40;96674.56;2063602;28;20435;-63
2022/08/30 13:17:18;;;;;;;8.00;3.63;;;;;;;32.79;32.74;96671.50;2063203;28;20490;-63
2022/08/30 13:18:28;;;;;;;5.33;3.33;;;;;;;33.03;32.31;96672.72;2063604;28;20482;-63
2022/08/30 13:19:36;;;;;;;9.50;3.13;;;;;;;33.00;32.52;96670.44;2063588;28;20966;-63
2022/08/30 13:20:37;;;;;;;11.63;3.40;;;;;;;33.22;32.02;96668.31;2063641;28;20424;-63
2022/08/30 13:21:50;;;;;;;4.93;3.77;;;;;;;33.05;32.36;96665.22;2063549;28;21181;-63
2022/08/30 13:23:03;;;;;;;12.20;3.73;;;;;;;32.74;33.28;96667.78;2063575;28;20420;-63
2022/08/30 13:24:05;;;;;;;6.87;2.87;;;;;;;33.46;31.72;96655.16;2063638;28;20428;-63
2022/08/30 13:25:09;;;;;;;5.47;3.30;;;;;;;33.95;31.50;96668.28;2063603;28;21143;-63
2022/08/30 13:26:10;;;;;;;5.47;3.40;;;;;;;34.38;31.04;96658.66;2062127;28;20431;-63
2022/08/30 13:27:12;;;;;;;7.23;3.67;;;;;;;33.88;31.59;96656.66;2062945;28;20538;-63
2022/08/30 13:28:16;;;;;;;9.80;3.77;;;;;;;34.18;30.58;96662.31;2063084;28;20526;-63
2022/08/30 13:29:25;;;;;;;10.53;3.90;;;;;;;34.74;30.32;96659.81;2062818;28;20432;-63
2022/08/30 13:30:28;;;;;;;5.87;2.93;;;;;;;34.18;30.52;96663.16;2063003;28;20432;-63
2022/08/30 13:31:36;;;;;;;10.60;3.97;;;;;;;34.48;29.90;96656.28;2063470;28;20811;-63
2022/08/30 13:32:38;;;;;;;5.93;3.63;;;;;;;33.93;30.55;96652.25;2062670;28;20550;-64
2022/08/30 13:33:40;;;;;;;5.57;3.73;;;;;;;33.87;30.90;96647.72;2063432;28;20424;-65
2022/08/30 13:34:42;;;;;;;5.47;3.50;;;;;;;34.37;30.11;96649.69;2063368;28;20432;-64
2022/08/30 13:35:44;;;;;;;4.50;3.17;;;;;;;32.76;32.36;96658.41;2062955;28;20978;-64
2022/08/30 13:36:49;;;;;;;5.60;3.50;;;;;;;34.01;31.29;96649.28;2061845;28;20443;-65
2022/08/30 13:37:50;;;;;;;5.30;3.90;;;;;;;33.72;31.19;96644.44;2063469;28;20439;-64
2022/08/30 13:38:52;;;;;;;5.50;3.27;;;;;;;33.64;30.81;96657.16;2063448;28;20448;-65
2022/08/30 13:39:54;;;;;;;4.53;3.40;;;;;;;33.89;30.97;96648.34;2063060;28;20973;-64
2022/08/30 13:40:56;;;;;;;5.23;3.53;;;;;;;32.21;33.02;96645.06;2062937;28;20427;-64
2022/08/30 13:47:04;;;;;;;10.97;3.60;;;;;;;32.90;31.74;96648.41;2063004;28;20499;-62
2022/08/30 13:48:25;;;;;;;10.43;3.43;;;;;;;33.31;31.70;96641.88;2062451;28;20455;-62
2022/08/30 13:49:31;;;;;;;3.60;2.87;;;;;;;34.20;30.83;96635.84;2063524;28;20428;-62
2022/08/30 13:50:47;;;;;;;4.33;3.33;;;;;;;34.74;29.85;96632.72;2063606;28;20823;-63
2022/08/30 13:51:52;;;;;;;5.20;3.80;;;;;;;34.78;30.01;96631.19;2062605;28;20471;-62
2022/08/30 13:53:14;;;;;;;8.47;3.20;;;;;;;33.29;31.12;96624.19;2064397;28;20466;-65
2022/08/30 13:54:15;;;;;;;14.43;3.77;;;;;;;33.18;31.73;96628.38;2064975;28;20428;-62
2022/08/30 13:55:17;;;;;;;8.80;3.30;;;;;;;34.04;30.98;96623.63;2063264;28;20447;-63
2022/08/30 13:56:18;;;;;;;6.27;3.67;;;;;;;32.82;31.56;96618.88;2065052;28;20489;-63
2022/08/30 13:57:27;;;;;;;5.27;3.60;;;;;;;32.27;33.16;96625.31;2064463;28;21023;-63
2022/08/30 13:58:49;;;;;;;4.40;3.00;;;;;;;31.73;33.14;96624.38;2064349;28;20970;-63
2022/08/30 13:59:50;;;;;;;14.30;4.13;;;;;;;30.77;34.69;96621.38;2064266;28;20459;-63
2022/08/30 14:00:52;;;;;;;5.13;3.70;;;;;;;30.10;36.14;96622.66;2064473;28;20451;-63
2022/08/30 14:01:56;;;;;;;13.30;3.40;;;;;;;30.20;35.91;96620.47;2064204;28;20421;-63
2022/08/30 14:03:13;;;;;;;5.73;3.50;;;;;;;31.59;34.26;96624.31;2064259;28;20427;-63
2022/08/30 14:04:14;;;;;;;10.90;3.70;;;;;;;32.56;33.07;96620.56;2064307;28;20430;-63
2022/08/30 14:05:17;;;;;;;5.00;3.57;;;;;;;33.01;32.38;96615.31;2063025;28;20439;-63
2022/08/30 14:06:38;;;;;;;5.57;2.90;;;;;;;32.62;32.26;96619.72;2064844;28;20775;-63
2022/08/30 14:08:00;;;;;;;9.37;3.10;;;;;;;33.05;32.13;96623.81;2064244;28;20460;-63
2022/08/30 14:09:05;;;;;;;4.70;3.60;;;;;;;33.89;31.08;96612.28;2064929;28;20959;-63
2022/08/30 14:10:07;;;;;;;9.33;3.87;;;;;;;33.83;30.44;96614.81;2064986;28;20470;-63
2022/08/30 14:18:05;;;;;;;8.00;3.60;;;;;;;32.56;32.04;96607.03;2064401;28;20493;-63
2022/08/30 14:19:07;;;;;;;3.90;3.13;;;;;;;32.76;32.11;96607.06;2072201;28;20633;-63
2022/08/30 14:20:12;;;;;;;7.23;3.23;;;;;;;32.79;32.00;96608.50;2071541;28;20461;-63
2022/08/30 14:21:18;;;;;;;6.67;3.10;;;;;;;33.08;31.40;96601.78;2063730;28;20424;-63
2022/08/30 14:22:24;;;;;;;4.17;3.63;;;;;;;32.87;32.26;96602.88;2063375;28;21183;-63
2022/08/30 14:23:27;;;;;;;6.40;3.90;;;;;;;33.14;31.42;96605.50;2064109;28;20431;-63
2022/08/30 14:24:28;;;;;;;5.27;3.30;;;;;;;32.53;32.13;96604.75;2072400;28;20953;-63
2022/08/30 14:25:30;;;;;;;5.30;3.53;;;;;;;32.89;31.87;96595.38;2071407;28;20566;-63
2022/08/30 14:26:35;;;;;;;3.70;3.30;;;;;;;33.28;31.32;96593.63;2064867;28;20432;-63
2022/08/30 14:27:36;;;;;;;4.30;3.10;;;;;;;32.99;31.44;96586.81;2063840;28;20487;-63
2022/08/30 14:28:38;;;;;;;6.03;3.23;;;;;;;32.91;31.47;96604.09;2064598;28;20491;-63
2022/08/30 14:29:39;;;;;;;4.87;3.33;;;;;;;33.21;31.20;96604.41;2064211;28;20435;-63
2022/08/30 14:30:44;;;;;;;5.00;3.50;;;;;;;33.47;30.19;96596.44;2062908;28;20526;-63
2022/08/30 14:31:51;;;;;;;5.50;3.30;;;;;;;32.82;30.93;96589.97;2064372;28;20985;-63
2022/08/30 14:32:52;;;;;;;8.93;3.27;;;;;;;31.00;33.48;96590.63;2064179;28;20505;-63
2022/08/30 14:33:54;;;;;;;4.97;3.13;;;;;;;32.15;32.53;96589.13;2064552;28;20444;-63
2022/08/30 14:34:55;;;;;;;3.33;3.03;;;;;;;32.80;31.79;96583.97;2064601;28;20435;-63
2022/08/30 14:35:57;;;;;;;4.10;2.83;;;;;;;33.08;31.75;96577.44;2064671;28;20428;-63